Time;durP1;ratioP1;P1;durP2;ratioP2;P2;SDS_P1;SDS_P2;PMS_P1;PMS_P2;Temp;Humidity;BMP_temperature;BMP_pressure;BME280_temperature;BME280_humidity;BME280_pressure;Samples;Min_cycle;Max_cycle;Signal;HPM_P1;HPM_P2
2023/03/13 00:02:13;;;;;;;12.32;3.30;;;14.60;77.50;;;;;;3929049;30;20063;-72
2023/03/13 00:04:54;;;;;;;15.27;4.53;;;14.60;77.60;;;;;;3928233;30;20065;-71
2023/03/13 00:07:35;;;;;;;17.77;3.83;;;14.60;77.80;;;;;;3928874;30;20520;-71
2023/03/13 00:10:16;;;;;;;17.15;4.00;;;14.60;77.90;;;;;;3929256;30;20055;-72
2023/03/13 00:12:57;;;;;;;17.92;4.00;;;14.60;78.10;;;;;;3918229;30;20447;-71
2023/03/13 00:15:38;;;;;;;16.25;3.88;;;14.60;78.00;;;;;;3929150;30;20059;-71
2023/03/13 00:18:20;;;;;;;19.77;4.32;;;14.50;78.00;;;;;;3929082;30;20186;-71
2023/03/13 00:21:02;;;;;;;18.33;4.57;;;14.50;78.10;;;;;;3914582;30;20593;-71
2023/03/13 00:23:43;;;;;;;13.90;4.03;;;14.50;79.20;;;;;;3914180;30;20546;-71
2023/03/13 00:26:25;;;;;;;16.00;4.43;;;14.50;78.50;;;;;;3903406;30;20060;-72
2023/03/13 00:29:06;;;;;;;16.75;4.25;;;14.60;78.80;;;;;;3903369;30;20059;-72
2023/03/13 00:31:48;;;;;;;;;;;14.60;78.80;;;;;;3914776;30;20525;-72
2023/03/13 00:34:30;;;;;;;16.58;3.80;;;14.70;78.60;;;;;;3914245;30;20024;-73
2023/03/13 00:37:11;;;;;;;21.48;5.50;;;14.80;79.30;;;;;;3928913;30;20071;-72
2023/03/13 00:39:52;;;;;;;21.75;5.00;;;14.80;78.10;;;;;;3905194;30;20055;-72
2023/03/13 00:42:34;;;;;;;25.30;4.82;;;14.90;77.80;;;;;;3914211;30;20051;-72
2023/03/13 00:45:15;;;;;;;18.52;4.25;;;15.00;77.60;;;;;;3914011;30;20063;-72
2023/03/13 00:47:57;;;;;;;20.30;4.07;;;15.00;77.20;;;;;;3912779;30;20109;-71
2023/03/13 00:50:37;;;;;;;22.85;5.25;;;15.00;77.10;;;;;;3928432;30;20061;-71
2023/03/13 00:53:19;;;;;;;22.15;4.20;;;15.10;77.00;;;;;;3917342;30;20109;-71
2023/03/13 00:56:01;;;;;;;18.40;4.83;;;15.10;76.90;;;;;;3915025;30;20079;-71
2023/03/13 00:58:44;;;;;;;21.25;4.63;;;15.10;77.00;;;;;;3927653;30;20377;-71
2023/03/13 01:01:27;;;;;;;17.40;3.97;;;15.10;76.90;;;;;;3902861;30;20051;-71
2023/03/13 01:04:10;;;;;;;23.58;5.75;;;15.20;76.70;;;;;;3902929;30;20386;-72
2023/03/13 01:06:51;;;;;;;18.65;4.70;;;15.30;76.50;;;;;;3912917;30;20064;-71
2023/03/13 01:09:32;;;;;;;20.17;4.70;;;15.30;76.30;;;;;;3902750;30;20059;-71
2023/03/13 01:12:12;;;;;;;16.80;4.80;;;15.30;76.20;;;;;;3910287;30;20093;-71
2023/03/13 01:14:53;;;;;;;20.42;4.65;;;15.30;76.10;;;;;;3916734;30;20054;-71
2023/03/13 01:17:35;;;;;;;19.55;4.25;;;15.30;76.10;;;;;;3928056;30;20059;-71
2023/03/13 01:20:20;;;;;;;25.20;4.82;;;15.40;76.20;;;;;;3925612;30;20106;-71
2023/03/13 01:23:01;;;;;;;18.23;4.72;;;15.50;75.80;;;;;;3927946;30;20141;-70
2023/03/13 01:25:41;;;;;;;17.50;4.17;;;15.50;75.60;;;;;;3927106;30;20063;-71
2023/03/13 01:28:23;;;;;;;17.95;4.20;;;15.60;75.40;;;;;;3920782;30;20071;-70
2023/03/13 01:31:11;;;;;;;17.70;3.50;;;15.60;75.30;;;;;;3927956;30;20580;-69
2023/03/13 01:33:55;;;;;;;20.33;4.35;;;15.60;75.30;;;;;;3927835;30;20390;-69
2023/03/13 01:36:38;;;;;;;17.10;4.13;;;15.50;75.10;;;;;;3927690;30;20071;-69
2023/03/13 01:39:19;;;;;;;15.70;4.75;;;15.50;75.30;;;;;;3902560;30;20485;-69
2023/03/13 01:42:00;;;;;;;18.05;4.55;;;15.50;75.50;;;;;;3927490;30;20159;-69
2023/03/13 01:44:51;;;;;;;15.60;5.07;;;15.50;75.40;;;;;;3916758;30;20113;-69
2023/03/13 01:47:32;;;;;;;17.80;4.70;;;15.50;75.60;;;;;;3916859;30;20413;-70
2023/03/13 01:50:22;;;;;;;14.53;4.70;;;15.50;75.50;;;;;;3916772;30;20405;-70
2023/03/13 01:53:11;;;;;;;16.70;4.10;;;15.40;75.50;;;;;;3927544;30;20082;-71
2023/03/13 01:55:54;;;;;;;13.70;3.88;;;15.40;75.50;;;;;;3927628;30;20749;-71
2023/03/13 01:58:37;;;;;;;16.63;4.43;;;15.40;75.60;;;;;;3916513;30;20105;-71
2023/03/13 02:01:19;;;;;;;19.73;4.43;;;15.50;75.70;;;;;;3916244;30;20469;-71
2023/03/13 02:04:00;;;;;;;19.58;4.97;;;15.50;75.70;;;;;;3913365;30;20071;-71
2023/03/13 02:06:43;;;;;;;20.27;4.30;;;15.50;75.50;;;;;;3901811;30;20114;-71
2023/03/13 02:09:29;;;;;;;12.68;4.07;;;15.50;75.60;;;;;;3901959;30;20060;-70
2023/03/13 02:12:16;;;;;;;15.18;3.97;;;15.60;76.00;;;;;;3902108;30;20068;-71
2023/03/13 02:15:00;;;;;;;17.58;3.72;;;15.50;75.50;;;;;;3901968;30;20060;-71
2023/03/13 02:17:42;;;;;;;17.13;4.18;;;15.60;75.50;;;;;;3905827;30;20059;-71
2023/03/13 02:20:24;;;;;;;17.92;4.40;;;15.60;75.30;;;;;;3902031;30;20056;-71
2023/03/13 02:23:12;;;;;;;16.85;3.83;;;15.70;74.90;;;;;;3912468;30;20460;-71
2023/03/13 02:25:56;;;;;;;15.63;4.13;;;15.70;74.60;;;;;;3911892;30;20059;-71
2023/03/13 02:28:44;;;;;;;16.20;4.43;;;15.70;74.40;;;;;;3900896;30;20075;-71
2023/03/13 02:31:27;;;;;;;21.10;4.15;;;15.70;74.60;;;;;;3901358;30;20417;-71
2023/03/13 02:34:08;;;;;;;19.53;5.00;;;15.80;74.70;;;;;;3915536;30;20063;-72
2023/03/13 02:36:49;;;;;;;16.35;3.85;;;15.70;74.70;;;;;;3915710;30;20113;-72
2023/03/13 02:39:33;;;;;;;12.00;3.72;;;15.70;74.90;;;;;;3915963;30;20059;-72
2023/03/13 02:42:19;;;;;;;14.13;4.07;;;15.70;75.10;;;;;;3915800;30;20077;-71
2023/03/13 02:45:01;;;;;;;11.45;3.58;;;15.80;75.10;;;;;;3916008;30;20067;-72
2023/03/13 02:47:42;;;;;;;11.57;3.35;;;15.70;74.80;;;;;;3915322;30;20090;-72
2023/03/13 02:50:24;;;;;;;11.45;3.58;;;15.80;74.80;;;;;;3905756;30;20062;-73
2023/03/13 02:53:07;;;;;;;9.95;3.55;;;15.80;74.80;;;;;;3903107;30;20063;-73
2023/03/13 02:55:49;;;;;;;9.27;3.00;;;15.80;74.90;;;;;;3915638;30;20075;-72
2023/03/13 02:58:38;;;;;;;;;;;15.80;74.80;;;;;;3891379;30;20059;-71
2023/03/13 03:01:30;;;;;;;11.00;3.45;;;15.80;74.70;;;;;;3900837;30;20027;-71
2023/03/13 03:04:14;;;;;;;10.27;3.10;;;15.80;74.80;;;;;;3901134;30;20078;-72
2023/03/13 03:06:55;;;;;;;8.00;3.03;;;15.80;75.50;;;;;;3901095;30;20063;-70
2023/03/13 03:09:36;;;;;;;5.40;2.15;;;15.80;74.50;;;;;;3901261;30;20068;-71
2023/03/13 03:12:22;;;;;;;6.78;2.40;;;15.90;74.50;;;;;;3911309;30;20478;-71
2023/03/13 03:15:06;;;;;;;7.38;2.50;;;15.90;74.50;;;;;;3904794;30;20079;-70
2023/03/13 03:17:48;;;;;;;6.82;2.33;;;15.90;74.30;;;;;;3926247;30;20145;-71
2023/03/13 03:20:29;;;;;;;4.70;1.60;;;15.90;74.30;;;;;;3916081;30;20055;-71
2023/03/13 03:23:10;;;;;;;6.20;2.28;;;15.90;74.20;;;;;;3915910;30;20063;-71
2023/03/13 03:25:51;;;;;;;2.97;1.40;;;15.90;75.00;;;;;;3915143;30;20197;-72
2023/03/13 03:28:32;;;;;;;4.85;1.88;;;16.00;74.10;;;;;;3926094;30;20185;-70
2023/03/13 03:31:18;;;;;;;6.00;1.40;;;16.00;74.00;;;;;;3915325;30;20059;-71
2023/03/13 03:34:00;;;;;;;3.63;1.67;;;16.00;73.70;;;;;;3915941;30;20071;-71
2023/03/13 03:36:42;;;;;;;2.72;1.60;;;16.00;73.70;;;;;;3918185;30;20059;-71
2023/03/13 03:39:23;;;;;;;2.77;1.27;;;16.10;73.60;;;;;;3929437;30;20476;-71
2023/03/13 03:42:04;;;;;;;1.85;1.10;;;16.10;73.60;;;;;;3910348;30;20324;-70
2023/03/13 03:44:45;;;;;;;1.75;1.35;;;16.10;73.40;;;;;;3913789;30;20213;-70
2023/03/13 03:47:28;;;;;;;2.40;1.20;;;16.00;73.40;;;;;;3918361;30;20393;-70
2023/03/13 03:50:11;;;;;;;2.13;1.00;;;16.00;73.50;;;;;;3918505;30;20508;-70
2023/03/13 03:53:01;;;;;;;1.55;0.88;;;16.00;73.60;;;;;;3918038;30;20167;-71
2023/03/13 03:55:42;;;;;;;1.83;1.30;;;16.00;73.90;;;;;;3918106;30;20126;-70
2023/03/13 03:58:23;;;;;;;3.43;1.20;;;16.00;74.10;;;;;;3927112;30;20062;-70
2023/03/13 04:01:18;;;;;;;0.90;0.80;;;16.00;73.90;;;;;;3903404;30;20310;-70
2023/03/13 04:04:00;;;;;;;1.88;1.13;;;16.00;73.80;;;;;;3903819;30;20063;-69
2023/03/13 04:06:41;;;;;;;2.65;1.10;;;16.00;73.80;;;;;;3903431;30;20060;-69
2023/03/13 04:09:22;;;;;;;1.40;1.13;;;16.10;73.60;;;;;;3903745;30;20072;-71
2023/03/13 04:12:04;;;;;;;1.48;1.35;;;16.20;73.40;;;;;;3907397;30;20129;-70
2023/03/13 04:14:49;;;;;;;0.80;0.55;;;16.20;73.20;;;;;;3910969;30;20115;-70
2023/03/13 04:17:31;;;;;;;2.50;1.00;;;16.20;73.20;;;;;;3903458;30;20064;-70
2023/03/13 04:20:13;;;;;;;1.00;0.93;;;16.20;73.30;;;;;;3900447;30;20060;-70
2023/03/13 04:22:54;;;;;;;1.10;1.00;;;16.20;73.00;;;;;;3903450;30;20058;-70
2023/03/13 04:25:35;;;;;;;1.10;1.00;;;16.20;73.00;;;;;;3903660;30;20071;-70
2023/03/13 04:28:17;;;;;;;0.77;0.75;;;16.20;73.10;;;;;;3903410;30;20554;-71
2023/03/13 04:31:00;;;;;;;0.75;0.68;;;16.10;73.10;;;;;;3914444;30;20509;-70
2023/03/13 04:33:59;;;;;;;1.20;0.80;;;16.10;73.40;;;;;;3913666;30;20080;-70
2023/03/13 04:36:49;;;;;;;1.05;0.95;;;16.00;73.70;;;;;;3903326;30;20078;-70
2023/03/13 04:39:53;;;;;;;3.00;1.20;;;16.10;73.80;;;;;;3902625;30;20064;-71
2023/03/13 04:43:06;;;;;;;1.85;0.80;;;16.10;73.50;;;;;;3888044;30;20086;-71
2023/03/13 04:46:04;;;;;;;0.57;0.57;;;16.20;73.30;;;;;;3911626;30;20137;-71
2023/03/13 04:49:03;;;;;;;1.20;1.10;;;16.20;74.10;;;;;;3914161;30;20172;-71
2023/03/13 04:52:07;;;;;;;1.08;1.05;;;16.20;73.20;;;;;;3913710;30;20413;-70
2023/03/13 04:55:17;;;;;;;1.50;1.40;;;16.20;73.30;;;;;;3907726;30;20531;-70
2023/03/13 04:58:15;;;;;;;3.20;1.20;;;16.20;74.10;;;;;;3907316;30;20520;-71
2023/03/13 05:01:16;;;;;;;1.40;1.08;;;16.20;73.40;;;;;;3917326;30;20059;-70
2023/03/13 05:04:12;;;;;;;1.17;1.08;;;16.20;73.50;;;;;;3916747;30;20075;-70
2023/03/13 05:07:09;;;;;;;2.38;1.35;;;16.20;73.40;;;;;;3927995;30;20067;-70
2023/03/13 05:10:18;;;;;;;3.10;1.30;;;16.30;73.40;;;;;;3917010;30;20564;-71
2023/03/13 05:13:19;;;;;;;1.90;1.40;;;16.30;73.40;;;;;;3902685;30;20122;-71
2023/03/13 05:16:10;;;;;;;1.25;1.25;;;16.30;73.40;;;;;;3902791;30;20321;-71
2023/03/13 05:19:09;;;;;;;1.33;1.23;;;16.30;74.20;;;;;;3914117;30;20833;-71
2023/03/13 05:22:14;;;;;;;1.35;1.30;;;16.30;73.30;;;;;;3899182;30;20098;-71
2023/03/13 05:25:14;;;;;;;7.30;1.38;;;16.30;73.50;;;;;;3913328;30;20628;-71
2023/03/13 05:27:54;;;;;;;2.47;1.33;;;16.20;73.50;;;;;;3920516;30;20068;-71
2023/03/13 05:30:44;;;;;;;2.78;1.33;;;16.20;73.80;;;;;;3910035;30;20651;-72
2023/03/13 05:33:37;;;;;;;2.55;1.50;;;16.20;75.00;;;;;;3913523;30;20417;-68
2023/03/13 05:36:36;;;;;;;1.83;1.60;;;16.20;74.20;;;;;;3913446;30;20181;-68
2023/03/13 05:39:41;;;;;;;3.03;1.73;;;16.20;74.10;;;;;;3908909;30;20078;-68
2023/03/13 05:42:41;;;;;;;2.78;1.85;;;16.20;74.00;;;;;;3912904;30;20064;-67
2023/03/13 05:45:44;;;;;;;6.65;2.13;;;16.20;74.20;;;;;;3913253;30;20071;-67
2023/03/13 05:48:39;;;;;;;4.15;2.10;;;16.20;74.50;;;;;;3901821;30;20051;-67
2023/03/13 05:51:43;;;;;;;2.88;1.27;;;16.20;74.90;;;;;;3912000;30;20079;-67
2023/03/13 05:54:49;;;;;;;4.63;1.58;;;16.20;74.90;;;;;;3912553;30;20113;-67
2023/03/13 05:57:48;;;;;;;2.22;1.40;;;16.20;74.70;;;;;;3901542;30;20067;-68
2023/03/13 06:00:43;;;;;;;2.15;1.67;;;16.20;74.70;;;;;;3903196;30;20063;-68
2023/03/13 06:03:43;;;;;;;5.40;1.50;;;16.30;74.90;;;;;;3927125;30;20139;-68
2023/03/13 06:06:26;;;;;;;2.65;1.80;;;16.40;74.50;;;;;;3916092;30;20059;-67
2023/03/13 06:09:10;;;;;;;3.17;1.70;;;16.40;74.30;;;;;;3916066;30;20189;-68
2023/03/13 06:11:54;;;;;;;2.28;1.65;;;16.40;74.20;;;;;;3916370;30;20055;-68
2023/03/13 06:14:36;;;;;;;3.55;1.50;;;16.40;74.20;;;;;;3916101;30;20520;-68
2023/03/13 06:17:24;;;;;;;2.08;1.60;;;16.40;74.20;;;;;;3926453;30;20056;-68
2023/03/13 06:20:06;;;;;;;1.15;1.10;;;16.40;74.30;;;;;;3917806;30;20067;-68
2023/03/13 06:22:47;;;;;;;3.05;1.52;;;16.40;74.60;;;;;;3927056;30;20113;-67
2023/03/13 06:25:28;;;;;;;3.22;1.40;;;16.40;74.80;;;;;;3927243;30;20067;-67
2023/03/13 06:28:10;;;;;;;3.47;1.70;;;16.40;74.80;;;;;;3927315;30;20722;-67
2023/03/13 06:30:51;;;;;;;2.75;1.38;;;16.40;74.80;;;;;;3927275;30;20051;-67
2023/03/13 06:33:32;;;;;;;3.38;1.95;;;16.40;74.60;;;;;;3916275;30;20070;-67
2023/03/13 06:36:13;;;;;;;4.07;1.75;;;16.40;74.80;;;;;;3924758;30;20151;-68
2023/03/13 06:38:54;;;;;;;2.85;1.55;;;16.40;75.10;;;;;;3912272;30;20149;-68
2023/03/13 06:41:35;;;;;;;3.75;2.05;;;16.40;75.70;;;;;;3912417;30;20067;-68
2023/03/13 06:44:17;;;;;;;2.58;1.90;;;16.40;75.90;;;;;;3901171;30;20554;-67
2023/03/13 06:46:58;;;;;;;3.15;1.83;;;16.30;75.80;;;;;;3902407;30;20056;-68
2023/03/13 06:49:39;;;;;;;3.15;1.77;;;16.40;75.80;;;;;;3913964;30;20195;-68
2023/03/13 06:52:20;;;;;;;3.80;1.83;;;16.40;76.80;;;;;;3921873;30;20528;-68
2023/03/13 06:55:09;;;;;;;6.07;2.97;;;16.40;76.00;;;;;;3901110;30;20054;-69
2023/03/13 06:57:51;;;;;;;6.05;2.47;;;16.50;75.80;;;;;;3911241;30;20072;-68
2023/03/13 07:00:33;;;;;;;4.80;1.55;;;16.60;75.30;;;;;;3918804;30;20055;-69
2023/03/13 07:03:14;;;;;;;4.22;2.00;;;16.60;74.90;;;;;;3915853;30;20627;-69
2023/03/13 07:05:59;;;;;;;4.77;2.63;;;16.70;75.20;;;;;;3926330;30;20553;-69
2023/03/13 07:08:40;;;;;;;5.55;2.13;;;16.70;75.70;;;;;;3926749;30;20055;-67
2023/03/13 07:11:21;;;;;;;4.90;1.73;;;16.70;75.30;;;;;;3930031;30;20067;-68
2023/03/13 07:14:02;;;;;;;5.22;1.98;;;16.70;75.40;;;;;;3929956;30;20063;-67
2023/03/13 07:16:59;;;;;;;6.78;3.22;;;16.70;75.30;;;;;;3918587;30;20051;-68
2023/03/13 07:19:40;;;;;;;6.07;1.95;;;16.70;75.60;;;;;;3929900;30;20059;-68
2023/03/13 07:22:21;;;;;;;5.45;2.10;;;16.60;75.70;;;;;;3929690;30;20545;-67
2023/03/13 07:25:02;;;;;;;4.97;2.42;;;16.60;75.90;;;;;;3918124;30;20071;-67
2023/03/13 07:27:42;;;;;;;4.30;2.30;;;16.50;76.20;;;;;;3929614;30;20067;-67
2023/03/13 07:30:23;;;;;;;6.85;2.55;;;16.60;76.30;;;;;;3925728;30;20206;-67
2023/03/13 07:33:06;;;;;;;3.95;2.17;;;16.60;76.00;;;;;;3914703;30;20056;-67
2023/03/13 07:35:51;;;;;;;6.55;2.40;;;16.70;75.80;;;;;;3913384;30;20133;-67
2023/03/13 07:38:33;;;;;;;8.82;3.25;;;16.70;75.80;;;;;;3929315;30;20178;-67
2023/03/13 07:41:14;;;;;;;;;;;16.70;75.60;;;;;;3915493;30;20153;-67
2023/03/13 07:43:55;;;;;;;6.35;2.40;;;16.80;75.30;;;;;;3923381;30;20345;-67
2023/03/13 07:46:36;;;;;;;4.88;2.35;;;16.80;75.10;;;;;;3916654;30;20054;-67
2023/03/13 07:49:18;;;;;;;5.93;2.47;;;16.80;75.10;;;;;;3910950;30;20063;-67
2023/03/13 07:51:59;;;;;;;7.65;2.25;;;16.70;75.20;;;;;;3903045;30;20644;-67
2023/03/13 07:54:40;;;;;;;4.95;2.15;;;16.70;75.50;;;;;;3914973;30;20060;-67
2023/03/13 07:57:21;;;;;;;5.32;2.13;;;16.70;75.60;;;;;;3914755;30;20068;-67
2023/03/13 08:00:02;;;;;;;4.78;2.00;;;16.80;75.50;;;;;;3899183;30;20060;-67
2023/03/13 08:02:51;;;;;;;2.65;1.73;;;16.80;75.20;;;;;;3914305;30;20054;-68
2023/03/13 08:05:34;;;;;;;3.97;2.05;;;16.90;75.50;;;;;;3918439;30;20055;-69
2023/03/13 08:08:15;;;;;;;3.05;1.98;;;16.90;75.60;;;;;;3915230;30;20087;-69
2023/03/13 08:11:00;;;;;;;2.22;1.33;;;16.80;75.70;;;;;;3907286;30;20222;-69
2023/03/13 08:13:42;;;;;;;4.05;1.30;;;16.80;75.90;;;;;;3923772;30;20583;-69
2023/03/13 08:16:23;;;;;;;;;;;16.80;76.10;;;;;;3928353;30;20516;-69
2023/03/13 08:19:05;;;;;;;1.40;0.90;;;16.70;76.30;;;;;;3913668;30;19936;-69
2023/03/13 08:21:47;;;;;;;1.10;1.00;;;16.60;76.50;;;;;;3898685;30;20051;-69
2023/03/13 08:24:28;;;;;;;2.03;1.08;;;16.50;76.90;;;;;;3912450;30;20113;-69
2023/03/13 08:27:09;;;;;;;5.22;1.90;;;16.50;77.40;;;;;;3923064;30;20206;-71
2023/03/13 08:29:49;;;;;;;1.40;1.10;;;16.50;77.40;;;;;;3922384;30;20147;-72
2023/03/13 08:32:33;;;;;;;4.20;0.98;;;16.60;77.40;;;;;;3929190;30;20058;-71
2023/03/13 08:35:14;;;;;;;3.05;1.55;;;16.60;77.30;;;;;;3925234;30;20141;-72
2023/03/13 08:37:56;;;;;;;5.63;1.40;;;16.60;77.30;;;;;;3923736;30;20150;-72
2023/03/13 08:40:38;;;;;;;1.08;1.02;;;16.50;77.30;;;;;;3931103;30;20194;-69
2023/03/13 08:43:18;;;;;;;3.20;1.13;;;16.60;77.70;;;;;;3927573;30;20067;-71
2023/03/13 08:46:00;;;;;;;2.05;1.08;;;16.50;77.50;;;;;;3929279;30;20062;-71
2023/03/13 08:48:40;;;;;;;1.98;0.88;;;16.50;77.80;;;;;;3936779;30;20058;-70
2023/03/13 08:51:23;;;;;;;1.17;0.88;;;16.50;77.90;;;;;;3930123;30;20100;-71
2023/03/13 08:54:06;;;;;;;3.13;1.23;;;16.40;78.10;;;;;;3925560;30;20575;-71
2023/03/13 08:56:47;;;;;;;1.33;0.90;;;16.40;78.30;;;;;;3922051;30;20125;-71
2023/03/13 08:59:28;;;;;;;2.80;1.08;;;16.40;78.50;;;;;;3928937;30;20847;-71
2023/03/13 09:02:09;;;;;;;1.03;0.70;;;16.30;78.70;;;;;;3924082;30;20074;-71
2023/03/13 09:04:50;;;;;;;;;;;16.30;78.90;;;;;;3919693;30;20431;-71
2023/03/13 09:07:31;;;;;;;3.33;1.15;;;16.30;79.10;;;;;;3930278;30;19936;-71
2023/03/13 09:10:13;;;;;;;1.42;0.88;;;16.20;79.10;;;;;;3931918;30;20059;-71
2023/03/13 09:12:54;;;;;;;2.25;0.70;;;16.20;79.40;;;;;;3930145;30;20139;-71
2023/03/13 09:15:35;;;;;;;2.20;1.00;;;16.20;79.50;;;;;;3928226;30;20054;-71
2023/03/13 09:18:16;;;;;;;3.05;0.93;;;16.20;79.60;;;;;;3931799;30;20074;-70
2023/03/13 09:20:57;;;;;;;2.88;1.13;;;16.20;79.70;;;;;;3924909;30;20067;-73
2023/03/13 09:23:39;;;;;;;2.75;0.93;;;16.10;79.70;;;;;;3929822;30;20140;-71
2023/03/13 09:26:22;;;;;;;1.50;1.00;;;16.10;79.90;;;;;;3932251;30;20219;-72
2023/03/13 09:29:03;;;;;;;3.38;1.10;;;16.10;79.90;;;;;;3925619;30;20129;-73
2023/03/13 09:31:44;;;;;;;;;;;16.10;80.00;;;;;;3915314;30;20064;-75
2023/03/13 09:34:26;;;;;;;2.53;0.90;;;16.00;80.10;;;;;;3918957;30;19937;-69
2023/03/13 09:37:07;;;;;;;2.88;1.05;;;16.00;80.30;;;;;;3920822;30;20059;-69
2023/03/13 09:39:48;;;;;;;5.28;1.25;;;15.90;80.50;;;;;;3913138;30;20059;-69
2023/03/13 09:42:39;;;;;;;4.95;1.67;;;15.90;80.80;;;;;;3931445;30;20055;-69
2023/03/13 09:45:30;;;;;;;2.70;1.33;;;15.90;80.80;;;;;;3931156;30;20063;-69
2023/03/13 09:48:17;;;;;;;4.80;1.52;;;15.90;80.80;;;;;;3928297;30;20179;-70
2023/03/13 09:51:06;;;;;;;3.85;1.48;;;15.90;80.90;;;;;;3926326;30;20520;-69
2023/03/13 09:53:52;;;;;;;3.92;1.40;;;15.80;81.00;;;;;;3913448;30;20055;-70
2023/03/13 09:56:40;;;;;;;4.75;1.40;;;15.80;81.00;;;;;;3930091;30;20062;-70
2023/03/13 09:59:33;;;;;;;3.70;1.67;;;15.80;81.20;;;;;;3930135;30;20059;-69
2023/03/13 10:02:25;;;;;;;5.50;1.95;;;15.80;81.30;;;;;;3930644;30;20054;-69
2023/03/13 10:05:10;;;;;;;;;;;15.70;81.30;;;;;;3932117;30;20063;-69
2023/03/13 10:07:52;;;;;;;3.22;1.20;;;15.70;81.30;;;;;;3929408;30;20050;-70
2023/03/13 10:10:40;;;;;;;5.95;1.60;;;15.80;82.30;;;;;;3931442;30;20055;-70
2023/03/13 10:13:26;;;;;;;6.85;1.15;;;15.80;81.50;;;;;;3934598;30;20062;-70
2023/03/13 10:16:11;;;;;;;5.78;1.63;;;15.70;81.50;;;;;;3920385;30;20067;-70
2023/03/13 10:18:55;;;;;;;7.63;2.25;;;15.80;81.80;;;;;;3928948;30;20075;-69
2023/03/13 10:21:39;;;;;;;7.00;1.75;;;15.80;81.70;;;;;;3935032;30;20059;-70
2023/03/13 10:24:32;;;;;;;6.55;1.77;;;15.80;82.50;;;;;;3930535;30;20586;-69
2023/03/13 10:27:15;;;;;;;4.75;1.50;;;15.90;81.60;;;;;;3933808;30;20188;-69
2023/03/13 10:29:56;;;;;;;9.55;3.17;;;15.90;81.50;;;;;;3938910;30;20067;-69
2023/03/13 10:32:38;;;;;;;9.70;1.67;;;15.90;81.30;;;;;;3934871;30;20066;-69
2023/03/13 10:35:23;;;;;;;6.05;1.40;;;15.90;81.20;;;;;;3927189;30;20520;-69
2023/03/13 10:38:08;;;;;;;7.28;1.70;;;15.90;81.10;;;;;;3931193;30;20059;-69
2023/03/13 10:40:57;;;;;;;7.85;1.90;;;15.90;81.00;;;;;;3930526;30;20069;-70
2023/03/13 10:43:51;;;;;;;7.43;2.20;;;15.90;80.80;;;;;;3933664;30;20531;-70
2023/03/13 10:46:35;;;;;;;9.55;2.05;;;15.90;80.80;;;;;;3932962;30;20047;-69
2023/03/13 10:49:19;;;;;;;9.57;2.33;;;15.90;80.60;;;;;;3932990;30;20278;-70
2023/03/13 10:52:03;;;;;;;10.10;1.88;;;15.90;80.20;;;;;;3924432;30;20066;-69
2023/03/13 10:54:45;;;;;;;8.13;2.30;;;16.00;80.30;;;;;;3932260;30;20066;-69
2023/03/13 10:57:29;;;;;;;7.03;2.42;;;16.00;80.20;;;;;;3932836;30;20062;-69
2023/03/13 11:00:35;;;;;;;7.60;2.58;;;15.90;80.10;;;;;;3928614;30;20525;-69
2023/03/13 11:03:19;;;;;;;14.60;3.17;;;16.00;80.00;;;;;;3918498;30;20054;-69
2023/03/13 11:06:02;;;;;;;10.98;2.65;;;16.00;80.00;;;;;;3928644;30;20192;-69
2023/03/13 11:08:43;;;;;;;21.48;6.88;;;16.00;80.00;;;;;;3925172;30;20059;-69
2023/03/13 11:11:29;;;;;;;20.65;4.13;;;16.00;80.00;;;;;;3930737;30;20065;-69
2023/03/13 11:14:15;;;;;;;10.02;3.03;;;16.00;80.00;;;;;;3935286;30;20063;-69
2023/03/13 11:17:03;;;;;;;22.02;7.45;;;16.00;79.90;;;;;;3912462;30;20259;-72
2023/03/13 11:20:03;;;;;;;19.80;6.40;;;16.00;79.90;;;;;;3929399;30;20088;-71
2023/03/13 11:23:00;;;;;;;14.38;2.92;;;16.00;79.80;;;;;;3923661;30;20409;-71
2023/03/13 11:25:48;;;;;;;18.98;4.60;;;16.00;79.80;;;;;;3930341;30;20062;-70
2023/03/13 11:28:40;;;;;;;15.13;3.35;;;16.00;79.90;;;;;;3932469;30;20615;-69
2023/03/13 11:31:23;;;;;;;;;;;16.00;79.90;;;;;;3916386;30;20059;-69
2023/03/13 11:34:11;;;;;;;8.43;3.15;;;16.00;79.90;;;;;;3917966;30;19937;-69
2023/03/13 11:36:56;;;;;;;9.40;3.35;;;16.00;79.90;;;;;;3922792;30;20112;-69
2023/03/13 11:39:50;;;;;;;13.55;3.30;;;16.00;79.90;;;;;;3920854;30;20109;-69
2023/03/13 11:42:54;;;;;;;22.40;6.82;;;16.00;79.70;;;;;;3925494;30;20155;-69
2023/03/13 11:46:01;;;;;;;13.90;3.42;;;16.00;79.90;;;;;;3932216;30;20063;-69
2023/03/13 11:48:57;;;;;;;12.15;3.85;;;16.00;79.90;;;;;;3917717;30;20705;-68
2023/03/13 11:51:52;;;;;;;11.00;3.03;;;16.00;79.90;;;;;;3932126;30;20082;-68
2023/03/13 11:54:55;;;;;;;15.65;3.28;;;16.00;80.00;;;;;;3924355;30;20059;-68
2023/03/13 11:57:44;;;;;;;9.55;3.20;;;16.00;79.90;;;;;;3932296;30;20051;-69
2023/03/13 12:00:31;;;;;;;9.82;2.75;;;16.00;79.80;;;;;;3926896;30;20116;-68
2023/03/13 12:03:17;;;;;;;15.43;4.47;;;16.00;79.60;;;;;;3933293;30;20070;-69
2023/03/13 12:06:01;;;;;;;8.25;2.70;;;16.00;79.70;;;;;;3930890;30;20156;-69
2023/03/13 12:08:46;;;;;;;9.90;3.05;;;16.10;79.70;;;;;;3929985;30;20175;-69
2023/03/13 12:11:32;;;;;;;7.70;2.78;;;16.10;79.60;;;;;;3934666;30;20059;-70
2023/03/13 12:14:17;;;;;;;16.40;5.45;;;16.10;79.50;;;;;;3934671;30;20198;-70
2023/03/13 12:17:01;;;;;;;6.53;2.17;;;16.10;79.40;;;;;;3932086;30;20063;-69
2023/03/13 12:19:47;;;;;;;10.95;3.08;;;16.10;79.50;;;;;;3932231;30;20152;-71
2023/03/13 12:22:33;;;;;;;7.88;3.50;;;16.10;79.40;;;;;;3935525;30;20076;-70
2023/03/13 12:25:21;;;;;;;7.55;2.25;;;16.00;79.30;;;;;;3927728;30;20190;-70
2023/03/13 12:28:22;;;;;;;13.52;3.33;;;16.10;79.40;;;;;;3931428;30;20433;-70
2023/03/13 12:31:18;;;;;;;;;;;16.10;79.30;;;;;;3927334;30;20125;-70
2023/03/13 12:34:09;;;;;;;7.53;3.25;;;16.10;79.50;;;;;;3919910;30;20015;-70
2023/03/13 12:36:56;;;;;;;11.25;3.17;;;16.00;80.50;;;;;;3923949;30;20541;-71
2023/03/13 12:39:42;;;;;;;7.85;2.45;;;16.10;80.50;;;;;;3917976;30;20443;-71
2023/03/13 12:42:37;;;;;;;8.13;2.53;;;16.10;81.10;;;;;;3936056;30;20054;-71
2023/03/13 12:45:23;;;;;;;13.43;2.67;;;16.10;79.90;;;;;;3928196;30;20069;-71
2023/03/13 12:48:28;;;;;;;9.88;1.80;;;16.10;79.80;;;;;;3926900;30;20164;-71
2023/03/13 12:51:24;;;;;;;13.65;3.28;;;16.10;79.70;;;;;;3927845;30;20055;-71
2023/03/13 12:54:21;;;;;;;20.35;3.20;;;16.10;79.80;;;;;;3915512;30;20194;-70
2023/03/13 12:57:22;;;;;;;10.40;2.88;;;16.10;79.60;;;;;;3927294;30;20145;-70
2023/03/13 13:00:12;;;;;;;16.92;3.35;;;16.10;79.60;;;;;;3927176;30;20059;-70
2023/03/13 13:03:15;;;;;;;12.95;3.30;;;16.10;79.30;;;;;;3925155;30;20083;-70
2023/03/13 13:06:03;;;;;;;12.80;2.97;;;16.10;78.80;;;;;;3928072;30;20067;-70
2023/03/13 13:08:48;;;;;;;9.90;3.50;;;16.10;78.70;;;;;;3930086;30;20121;-70
2023/03/13 13:11:46;;;;;;;11.60;3.22;;;16.10;79.30;;;;;;3932757;30;20059;-70
2023/03/13 13:15:00;;;;;;;7.30;2.17;;;16.10;78.40;;;;;;3928481;30;20054;-71
2023/03/13 13:18:16;;;;;;;10.57;3.13;;;16.10;78.40;;;;;;3917702;30;20059;-70
2023/03/13 13:21:25;;;;;;;8.00;2.25;;;16.10;78.20;;;;;;3931918;30;20058;-70
2023/03/13 13:24:40;;;;;;;8.98;2.45;;;16.10;78.40;;;;;;3931533;30;20072;-70
2023/03/13 13:27:45;;;;;;;15.93;2.97;;;16.10;78.10;;;;;;3926763;30;20059;-70
2023/03/13 13:30:31;;;;;;;7.30;2.58;;;16.10;77.70;;;;;;3930247;30;20404;-70
2023/03/13 13:33:39;;;;;;;11.93;3.03;;;16.10;77.70;;;;;;3921196;30;20063;-69
2023/03/13 13:36:31;;;;;;;15.27;3.38;;;16.20;77.70;;;;;;3885616;30;1112024;-69
2023/03/13 13:39:38;;;;;;;13.18;3.08;;;16.20;77.40;;;;;;3925995;30;20134;-69
2023/03/13 13:42:46;;;;;;;16.13;3.28;;;16.20;77.50;;;;;;3925871;30;20067;-70
2023/03/13 13:45:30;;;;;;;12.30;2.60;;;16.20;77.50;;;;;;3930187;30;20097;-69
2023/03/13 13:48:25;;;;;;;8.35;2.20;;;16.20;77.70;;;;;;3932912;30;20148;-70
2023/03/13 13:51:24;;;;;;;9.13;2.22;;;16.20;77.40;;;;;;3928966;30;20071;-69
2023/03/13 13:54:32;;;;;;;14.32;3.15;;;16.20;77.40;;;;;;3926882;30;20951;-69
2023/03/13 13:57:18;;;;;;;11.13;2.80;;;16.20;77.10;;;;;;3931208;30;20091;-69
2023/03/13 14:00:06;;;;;;;22.08;4.18;;;16.20;77.20;;;;;;3927013;30;20260;-69
2023/03/13 14:02:51;;;;;;;12.60;2.92;;;16.20;77.10;;;;;;3924567;30;20059;-70
2023/03/13 14:05:33;;;;;;;15.38;3.60;;;16.30;77.30;;;;;;3914776;30;20523;-68
2023/03/13 14:08:16;;;;;;;;;;;16.30;77.20;;;;;;3922529;30;20069;-69
2023/03/13 14:11:21;;;;;;;7.68;2.03;;;16.30;77.20;;;;;;3917190;30;20006;-69
2023/03/13 14:14:14;;;;;;;11.55;2.83;;;16.30;77.30;;;;;;3924480;30;20417;-69
2023/03/13 14:16:57;;;;;;;19.95;3.88;;;16.30;77.30;;;;;;3913374;30;20069;-70
2023/03/13 14:19:41;;;;;;;9.65;2.72;;;16.30;77.00;;;;;;3928064;30;20685;-70
2023/03/13 14:22:22;;;;;;;13.32;3.30;;;16.30;77.00;;;;;;3928873;30;20408;-70
2023/03/13 14:25:04;;;;;;;9.83;2.30;;;16.30;76.90;;;;;;3915581;30;20420;-69
2023/03/13 14:27:47;;;;;;;15.93;3.15;;;16.30;77.10;;;;;;3933369;30;20079;-69